createdAt,value
2022-12-17T00:02:08.199Z,47.00
2022-12-17T00:04:53.668Z,46.25
2022-12-17T00:07:39.394Z,30.55
2022-12-17T00:10:25.561Z,42.40
2022-12-17T00:13:12.297Z,34.05
2022-12-17T00:15:57.600Z,41.05
2022-12-17T00:18:51.485Z,34.92
2022-12-17T00:22:23.953Z,34.53
2022-12-17T00:25:15.379Z,36.00
2022-12-17T00:28:00.794Z,36.33
2022-12-17T00:30:47.547Z,30.55
2022-12-17T00:33:33.165Z,35.25
2022-12-17T00:36:28.193Z,37.60
2022-12-17T00:39:14.584Z,36.47
2022-12-17T00:41:59.035Z,32.97
2022-12-17T00:44:44.458Z,34.75
2022-12-17T00:47:30.961Z,37.35
2022-12-17T00:50:16.300Z,36.53
2022-12-17T00:53:03.140Z,38.92
2022-12-17T00:55:48.416Z,35.03
2022-12-17T00:58:34.012Z,36.25
2022-12-17T01:01:19.181Z,36.88
2022-12-17T01:04:06.190Z,41.95
2022-12-17T01:06:52.006Z,46.63
2022-12-17T01:09:38.582Z,39.88
2022-12-17T01:12:25.170Z,34.22
2022-12-17T01:15:11.125Z,36.38
2022-12-17T01:17:56.381Z,33.80
2022-12-17T01:20:45.518Z,44.95
2022-12-17T01:23:31.114Z,40.50
2022-12-17T01:26:16.637Z,38.30
2022-12-17T01:29:02.005Z,40.97
2022-12-17T01:31:47.385Z,42.85
2022-12-17T01:34:32.900Z,38.80
2022-12-17T01:37:19.319Z,39.15
2022-12-17T01:40:04.169Z,41.20
2022-12-17T01:42:56.415Z,41.67
2022-12-17T01:45:41.882Z,33.63
2022-12-17T01:48:29.968Z,37.83
2022-12-17T01:51:15.447Z,40.83
2022-12-17T01:54:05.568Z,50.30
2022-12-17T01:56:51.536Z,35.25
2022-12-17T01:59:39.202Z,32.22
2022-12-17T02:02:24.668Z,32.72
2022-12-17T02:05:09.883Z,31.52
2022-12-17T02:08:05.820Z,40.20
2022-12-17T02:10:58.484Z,39.28
2022-12-17T02:13:49.614Z,42.60
2022-12-17T02:16:38.956Z,38.55
2022-12-17T02:19:34.808Z,50.22
2022-12-17T02:22:26.743Z,41.20
2022-12-17T02:25:16.077Z,44.70
2022-12-17T02:28:17.098Z,42.22
2022-12-17T02:31:02.458Z,44.80
2022-12-17T02:33:47.495Z,39.75
2022-12-17T02:36:32.926Z,48.05
2022-12-17T02:39:17.942Z,47.67
2022-12-17T02:42:07.774Z,41.85
2022-12-17T02:44:57.773Z,56.53
2022-12-17T02:47:43.782Z,47.13
2022-12-17T02:50:30.507Z,62.10
2022-12-17T02:53:20.115Z,45.33
2022-12-17T02:56:05.374Z,51.90
2022-12-17T02:58:51.835Z,42.00
2022-12-17T03:01:46.672Z,42.38
2022-12-17T03:04:32.381Z,49.53
2022-12-17T03:07:17.397Z,43.25
2022-12-17T03:10:03.384Z,49.60
2022-12-17T03:12:48.353Z,45.75
2022-12-17T03:15:33.881Z,62.70
2022-12-17T03:18:20.306Z,45.00
2022-12-17T03:21:06.032Z,42.15
2022-12-17T03:23:51.291Z,53.22
2022-12-17T03:26:41.508Z,52.70
2022-12-17T03:29:26.598Z,50.50
2022-12-17T03:32:11.907Z,57.67
2022-12-17T03:34:58.862Z,61.95
2022-12-17T03:37:44.881Z,55.17
2022-12-17T03:40:30.051Z,55.70
2022-12-17T03:43:18.244Z,58.57
2022-12-17T03:46:10.469Z,61.90
2022-12-17T03:48:55.781Z,56.03
2022-12-17T03:51:42.402Z,56.58
2022-12-17T03:54:27.398Z,63.63
2022-12-17T03:57:16.212Z,53.28
2022-12-17T04:00:01.899Z,67.18
2022-12-17T04:02:47.082Z,62.47
2022-12-17T04:05:32.871Z,59.70
2022-12-17T04:08:19.494Z,53.08
2022-12-17T04:11:16.239Z,69.35
2022-12-17T04:14:01.896Z,67.65
2022-12-17T04:16:47.288Z,69.18
2022-12-17T04:19:32.996Z,63.90
2022-12-17T04:22:18.319Z,61.95
2022-12-17T04:25:05.205Z,67.18
2022-12-17T04:27:50.354Z,86.50
2022-12-17T04:30:36.126Z,65.68
2022-12-17T04:33:21.072Z,66.20
2022-12-17T04:36:06.383Z,64.32
2022-12-17T04:38:52.832Z,59.08
2022-12-17T04:41:39.406Z,79.17
2022-12-17T04:44:25.675Z,68.00
2022-12-17T04:47:11.015Z,73.93
2022-12-17T04:49:56.247Z,86.72
2022-12-17T04:52:41.429Z,75.10
2022-12-17T04:55:27.241Z,76.23
2022-12-17T04:58:13.613Z,71.78
2022-12-17T05:00:58.894Z,71.85
2022-12-17T05:03:43.960Z,70.77
2022-12-17T05:06:29.412Z,67.13
2022-12-17T05:09:14.345Z,70.80
2022-12-17T05:11:59.953Z,62.50
2022-12-17T05:14:46.746Z,83.80
2022-12-17T05:17:28.297Z,73.32
2022-12-17T05:20:13.626Z,64.65
2022-12-17T05:23:01.098Z,64.97
2022-12-17T05:25:54.735Z,65.75
2022-12-17T05:28:40.483Z,69.50
2022-12-17T05:31:27.340Z,82.22
2022-12-17T05:34:12.793Z,72.40
2022-12-17T05:36:58.163Z,64.57
2022-12-17T05:39:44.038Z,55.58
2022-12-17T05:42:29.522Z,57.47
2022-12-17T05:45:14.536Z,48.40
2022-12-17T05:48:00.948Z,61.65
2022-12-17T05:50:46.562Z,56.03
2022-12-17T05:53:31.657Z,52.85
2022-12-17T05:56:16.992Z,44.65
2022-12-17T05:59:02.638Z,53.05
2022-12-17T06:02:02.732Z,47.03
2022-12-17T06:04:49.539Z,51.95
2022-12-17T06:07:34.930Z,49.85
2022-12-17T06:10:20.853Z,62.72
2022-12-17T06:13:13.729Z,58.95
2022-12-17T06:15:58.780Z,62.40
2022-12-17T06:18:44.208Z,44.60
2022-12-17T06:21:30.957Z,62.10
2022-12-17T06:24:18.474Z,47.38
2022-12-17T06:27:04.014Z,48.05
2022-12-17T06:29:50.181Z,56.63
2022-12-17T06:32:35.696Z,41.63
2022-12-17T06:35:22.823Z,53.75
2022-12-17T06:38:15.736Z,56.33
2022-12-17T06:40:57.169Z,50.72
2022-12-17T06:43:42.634Z,47.83
2022-12-17T06:46:27.886Z,53.70
2022-12-17T06:49:21.757Z,43.25
2022-12-17T06:52:07.223Z,44.88
2022-12-17T06:54:54.082Z,42.83
2022-12-17T06:57:41.832Z,53.30
2022-12-17T07:00:30.150Z,45.10
2022-12-17T07:03:15.840Z,38.95
2022-12-17T07:06:01.839Z,56.63
2022-12-17T07:08:47.202Z,52.10
2022-12-17T07:11:34.178Z,45.97
2022-12-17T07:14:19.660Z,54.63
2022-12-17T07:17:04.970Z,55.80
2022-12-17T07:19:50.691Z,60.85
2022-12-17T07:22:36.379Z,55.03
2022-12-17T07:25:21.330Z,51.65
2022-12-17T07:28:12.613Z,56.47
2022-12-17T07:30:58.119Z,54.80
2022-12-17T07:33:43.328Z,48.47
2022-12-17T07:36:29.054Z,45.23
2022-12-17T07:39:14.496Z,52.13
2022-12-17T07:41:59.596Z,49.70
2022-12-17T07:44:46.056Z,56.03
2022-12-17T07:47:45.866Z,52.97
2022-12-17T07:50:31.204Z,68.05
2022-12-17T07:53:19.712Z,60.83
2022-12-17T07:56:04.939Z,51.50
2022-12-17T07:58:50.526Z,58.05
2022-12-17T08:01:36.917Z,50.13
2022-12-17T08:04:22.976Z,53.85
2022-12-17T08:07:13.879Z,57.60
2022-12-17T08:10:00.353Z,53.67
2022-12-17T08:12:45.777Z,47.83
2022-12-17T08:15:32.088Z,54.53
2022-12-17T08:18:26.400Z,55.85
2022-12-17T08:21:17.748Z,54.72
2022-12-17T08:24:03.136Z,47.67
2022-12-17T08:26:48.642Z,42.30
2022-12-17T08:29:34.137Z,49.80
2022-12-17T08:32:19.423Z,56.67
2022-12-17T08:35:14.375Z,55.53
2022-12-17T08:38:00.373Z,52.00
2022-12-17T08:40:45.548Z,50.67
2022-12-17T08:43:31.725Z,53.88
2022-12-17T08:46:17.202Z,46.88
2022-12-17T08:49:08.556Z,52.10
2022-12-17T08:52:09.249Z,55.63
2022-12-17T08:54:55.407Z,54.37
2022-12-17T08:57:51.773Z,54.23
2022-12-17T09:00:38.001Z,46.55
2022-12-17T09:03:23.346Z,40.83
2022-12-17T09:06:10.815Z,45.80
2022-12-17T09:08:57.839Z,55.42
2022-12-17T09:11:43.241Z,51.60
2022-12-17T09:14:28.737Z,52.33
2022-12-17T09:17:14.108Z,49.72
2022-12-17T09:19:59.241Z,43.00
2022-12-17T09:22:40.901Z,41.53
2022-12-17T09:25:28.569Z,44.70
2022-12-17T09:28:13.648Z,55.10
2022-12-17T09:31:00.982Z,58.28
2022-12-17T09:33:46.621Z,52.50
2022-12-17T09:36:31.752Z,45.13
2022-12-17T09:39:16.916Z,53.00
2022-12-17T09:42:09.156Z,52.38
2022-12-17T09:45:01.469Z,58.53
2022-12-17T09:47:52.808Z,54.72
2022-12-17T09:50:38.249Z,56.53
2022-12-17T09:53:36.477Z,49.33
2022-12-17T09:56:23.405Z,48.97
2022-12-17T09:59:12.077Z,46.20
2022-12-17T10:01:58.384Z,50.85
2022-12-17T10:04:51.551Z,51.08
2022-12-17T10:07:39.717Z,57.22
2022-12-17T10:10:38.729Z,44.40
2022-12-17T10:13:31.947Z,46.70
2022-12-17T10:16:18.349Z,52.20
2022-12-17T10:19:04.486Z,55.50
2022-12-17T10:21:50.246Z,49.10
2022-12-17T10:24:37.393Z,59.63
2022-12-17T10:27:27.604Z,52.60
2022-12-17T10:30:13.655Z,66.78
2022-12-17T10:33:00.557Z,61.60
2022-12-17T10:35:54.084Z,64.63
2022-12-17T10:38:40.835Z,59.10
2022-12-17T10:41:39.049Z,58.33
2022-12-17T10:44:38.918Z,57.67
2022-12-17T10:47:27.152Z,61.40
2022-12-17T10:50:17.646Z,70.10
2022-12-17T10:53:03.700Z,69.72
2022-12-17T10:55:50.950Z,69.13
2022-12-17T10:58:40.370Z,74.95
2022-12-17T11:01:28.141Z,73.15
2022-12-17T11:04:14.479Z,74.93
2022-12-17T11:07:03.173Z,78.40
2022-12-17T11:09:56.648Z,76.15
2022-12-17T11:12:46.544Z,71.32
2022-12-17T11:15:37.403Z,85.13
2022-12-17T11:18:23.383Z,76.93
2022-12-17T11:21:11.355Z,80.65
2022-12-17T11:24:01.751Z,69.95
2022-12-17T11:26:50.017Z,79.38
2022-12-17T11:29:35.772Z,75.83
2022-12-17T11:32:33.678Z,75.28
2022-12-17T11:35:23.697Z,73.32
2022-12-17T11:38:15.902Z,79.15
2022-12-17T11:41:09.134Z,66.40
2022-12-17T11:43:59.985Z,69.03
2022-12-17T11:46:53.872Z,73.17
2022-12-17T11:49:45.154Z,71.80
2022-12-17T11:52:39.701Z,63.47
2022-12-17T11:55:30.624Z,79.32
2022-12-17T11:58:23.106Z,61.07
2022-12-17T12:01:15.105Z,70.25
2022-12-17T12:04:04.794Z,70.30
2022-12-17T12:06:56.165Z,70.18
2022-12-17T12:09:47.351Z,66.78
2022-12-17T12:12:40.066Z,70.63
2022-12-17T12:15:45.327Z,66.45
2022-12-17T12:18:37.001Z,65.95
2022-12-17T12:21:30.147Z,71.88
2022-12-17T12:24:28.177Z,75.35
2022-12-17T12:27:19.798Z,64.43
2022-12-17T12:30:10.868Z,65.05
2022-12-17T12:33:04.316Z,66.97
2022-12-17T12:35:54.910Z,59.72
2022-12-17T12:38:46.319Z,66.18
2022-12-17T12:41:38.196Z,61.73
2022-12-17T12:44:27.145Z,62.70
2022-12-17T12:47:16.806Z,65.53
2022-12-17T12:50:07.692Z,63.90
2022-12-17T12:52:53.062Z,59.70
2022-12-17T12:55:38.337Z,57.88
2022-12-17T12:58:24.375Z,58.17
2022-12-17T13:01:13.473Z,70.05
2022-12-17T13:04:08.516Z,57.17
2022-12-17T13:06:43.633Z,62.55
2022-12-17T13:09:39.543Z,59.83
2022-12-17T13:12:29.308Z,58.72
2022-12-17T13:15:03.569Z,59.78
2022-12-17T13:17:34.654Z,63.67
2022-12-17T13:20:24.891Z,61.85
2022-12-17T13:22:55.509Z,67.20
2022-12-17T13:25:24.133Z,65.53
2022-12-17T13:27:52.264Z,58.28
2022-12-17T13:30:31.473Z,58.22
2022-12-17T13:33:24.625Z,59.17
2022-12-17T13:36:01.835Z,55.78
2022-12-17T13:38:36.631Z,59.67
2022-12-17T13:41:10.151Z,56.20
2022-12-17T13:43:45.306Z,52.15
2022-12-17T13:46:20.876Z,53.20
2022-12-17T13:48:56.536Z,50.00
2022-12-17T13:51:25.408Z,57.50
2022-12-17T13:53:55.722Z,59.33
2022-12-17T13:56:27.186Z,71.88
2022-12-17T13:58:56.170Z,63.75
2022-12-17T14:01:26.090Z,63.15
2022-12-17T14:04:10.988Z,70.20
2022-12-17T14:06:40.154Z,61.35
2022-12-17T14:09:15.502Z,59.58
2022-12-17T14:12:00.885Z,59.23
2022-12-17T14:14:30.846Z,58.33
2022-12-17T14:16:59.488Z,63.50
2022-12-17T14:19:28.229Z,61.38
2022-12-17T14:21:56.230Z,58.38
2022-12-17T14:24:29.341Z,51.90
2022-12-17T14:26:58.788Z,60.60
2022-12-17T14:29:28.605Z,57.67
2022-12-17T14:31:58.215Z,50.22
2022-12-17T14:34:25.718Z,53.65
2022-12-17T14:36:58.224Z,52.47
2022-12-17T14:39:28.957Z,58.03
2022-12-17T14:42:14.872Z,57.10
2022-12-17T14:44:51.129Z,53.67
2022-12-17T14:47:20.576Z,48.22
2022-12-17T14:49:55.963Z,49.30
2022-12-17T14:52:33.896Z,56.42
2022-12-17T14:55:03.439Z,49.00
2022-12-17T14:57:31.111Z,59.63
2022-12-17T14:59:58.653Z,53.60
2022-12-17T15:02:28.121Z,58.90
2022-12-17T15:04:58.182Z,60.08
2022-12-17T15:07:28.039Z,54.90
2022-12-17T15:09:56.213Z,62.45
2022-12-17T15:12:25.941Z,64.95
2022-12-17T15:14:53.491Z,61.58
2022-12-17T15:17:20.973Z,65.55
2022-12-17T15:19:55.630Z,60.42
2022-12-17T15:22:23.893Z,63.38
2022-12-17T15:24:51.380Z,65.90
2022-12-17T15:27:18.970Z,65.22
2022-12-17T15:29:48.109Z,81.38
2022-12-17T15:32:19.284Z,77.60
2022-12-17T15:34:46.814Z,74.35
2022-12-17T15:37:15.369Z,81.60
2022-12-17T15:39:42.964Z,72.70
2022-12-17T15:42:28.792Z,74.40
2022-12-17T15:44:57.796Z,74.23
2022-12-17T15:47:25.337Z,71.03
2022-12-17T15:49:52.904Z,79.95
2022-12-17T15:52:20.446Z,74.18
2022-12-17T15:54:49.302Z,80.28
2022-12-17T15:57:18.827Z,72.67
2022-12-17T15:59:46.613Z,85.13
2022-12-17T16:02:15.856Z,95.47
2022-12-17T16:04:43.555Z,90.85
2022-12-17T16:07:11.415Z,98.20
2022-12-17T16:09:39.777Z,92.43
2022-12-17T16:12:07.723Z,99.75
2022-12-17T16:14:35.215Z,93.53
2022-12-17T16:17:02.713Z,112.47
2022-12-17T16:19:31.607Z,122.13
2022-12-17T16:21:59.507Z,113.55
2022-12-17T16:24:27.060Z,102.25
2022-12-17T16:27:04.088Z,110.78
2022-12-17T16:29:34.513Z,108.57
2022-12-17T16:32:02.600Z,105.18
2022-12-17T16:34:32.017Z,102.00
2022-12-17T16:37:01.284Z,102.38
2022-12-17T16:39:28.900Z,98.22
2022-12-17T16:41:56.650Z,93.55
2022-12-17T16:44:24.180Z,93.35
2022-12-17T16:46:52.127Z,92.83
2022-12-17T16:49:21.169Z,94.82
2022-12-17T16:51:54.034Z,93.97
2022-12-17T16:54:23.985Z,89.95
2022-12-17T16:56:51.549Z,99.70
2022-12-17T16:59:19.717Z,97.18
2022-12-17T17:01:48.998Z,105.30
2022-12-17T17:04:18.356Z,94.00
2022-12-17T17:06:47.946Z,99.28
2022-12-17T17:09:17.663Z,94.13
2022-12-17T17:11:51.126Z,91.93
2022-12-17T17:14:19.629Z,90.68
2022-12-17T17:16:47.237Z,84.80
2022-12-17T17:19:15.057Z,88.88
2022-12-17T17:21:43.949Z,83.88
2022-12-17T17:24:20.383Z,84.45
2022-12-17T17:26:51.932Z,89.20
2022-12-17T17:29:20.299Z,88.03
2022-12-17T17:34:35.941Z,90.97
2022-12-17T17:37:03.512Z,91.10
2022-12-17T17:39:33.021Z,95.25
2022-12-17T17:42:02.200Z,88.32
2022-12-17T17:44:29.703Z,82.93
2022-12-17T17:46:57.524Z,85.87
2022-12-17T17:49:26.060Z,89.90
2022-12-17T17:52:10.859Z,79.85
2022-12-17T17:54:40.338Z,72.63
2022-12-17T17:57:10.059Z,83.15
2022-12-17T17:59:39.146Z,70.00
2022-12-17T18:02:06.842Z,67.53
2022-12-17T18:04:34.443Z,74.10
2022-12-17T18:07:24.125Z,80.50
2022-12-17T18:09:50.177Z,81.22
2022-12-17T18:12:36.811Z,83.47
2022-12-17T18:15:14.340Z,84.17
2022-12-17T18:17:43.624Z,80.50
2022-12-17T18:20:12.115Z,78.28
2022-12-17T18:22:39.844Z,76.47
2022-12-17T18:25:07.989Z,79.60
2022-12-17T18:27:41.122Z,85.18
2022-12-17T18:30:09.906Z,91.85
2022-12-17T18:32:37.409Z,78.35
2022-12-17T18:35:06.777Z,76.28
2022-12-17T18:37:34.426Z,72.17
2022-12-17T18:40:02.141Z,66.68
2022-12-17T18:42:47.265Z,72.25
2022-12-17T18:45:17.097Z,81.15
2022-12-17T18:47:45.049Z,67.33
2022-12-17T18:50:13.087Z,63.97
2022-12-17T18:52:40.666Z,72.53
2022-12-17T18:55:08.580Z,72.13
2022-12-17T18:57:37.002Z,65.13
2022-12-17T19:00:05.951Z,65.40
2022-12-17T19:02:36.375Z,66.85
2022-12-17T19:05:04.219Z,65.13
2022-12-17T19:07:31.849Z,66.68
2022-12-17T19:09:59.634Z,64.18
2022-12-17T19:12:27.376Z,71.97
2022-12-17T19:14:55.650Z,65.20
2022-12-17T19:17:24.142Z,65.72
2022-12-17T19:19:53.785Z,74.65
2022-12-17T19:22:22.234Z,62.92
2022-12-17T19:24:49.760Z,56.47
2022-12-17T19:27:17.364Z,54.22
2022-12-17T19:29:49.144Z,57.22
2022-12-17T19:32:17.320Z,58.17
2022-12-17T19:34:45.037Z,49.50
2022-12-17T19:37:14.027Z,51.63
2022-12-17T19:39:42.354Z,50.67
2022-12-17T19:42:24.595Z,50.90
2022-12-17T19:44:54.919Z,58.70
2022-12-17T19:47:23.420Z,55.28
2022-12-17T19:49:51.031Z,54.63
2022-12-17T19:52:19.869Z,68.35
2022-12-17T19:54:47.337Z,63.38
2022-12-17T19:57:15.409Z,66.85
2022-12-17T19:59:43.837Z,59.78
2022-12-17T20:02:11.845Z,52.25
2022-12-17T20:04:39.536Z,55.50
2022-12-17T20:07:08.162Z,61.60
2022-12-17T20:09:37.218Z,63.47
2022-12-17T20:12:05.037Z,55.28
2022-12-17T20:14:38.173Z,57.80
2022-12-17T20:17:06.522Z,65.00
2022-12-17T20:19:34.891Z,60.70
2022-12-17T20:22:04.387Z,56.78
2022-12-17T20:24:32.474Z,60.58
2022-12-17T20:27:02.061Z,61.28
2022-12-17T20:29:29.892Z,59.95
2022-12-17T20:31:57.649Z,61.08
2022-12-17T20:34:26.261Z,59.53
2022-12-17T20:36:54.598Z,47.50
2022-12-17T20:39:27.150Z,56.95
2022-12-17T20:41:55.828Z,53.50
2022-12-17T20:44:24.784Z,54.65
2022-12-17T20:46:52.330Z,61.85
2022-12-17T20:49:20.101Z,62.72
2022-12-17T20:51:47.661Z,49.28
2022-12-17T20:54:15.166Z,54.88
2022-12-17T20:56:42.836Z,58.92
2022-12-17T20:59:15.791Z,58.97
2022-12-17T21:01:45.578Z,54.28
2022-12-17T21:04:13.893Z,50.47
2022-12-17T21:06:43.325Z,52.92
2022-12-17T21:09:11.651Z,53.17
2022-12-17T21:11:40.903Z,56.50
2022-12-17T21:14:10.664Z,43.10
2022-12-17T21:16:39.983Z,52.07
2022-12-17T21:19:10.822Z,47.15
2022-12-17T21:21:38.885Z,57.17
2022-12-17T21:24:07.211Z,56.00
2022-12-17T21:26:37.091Z,53.53
2022-12-17T21:29:06.732Z,58.63
2022-12-17T21:31:35.721Z,54.60
2022-12-17T21:34:04.763Z,53.75
2022-12-17T21:36:34.967Z,53.08
2022-12-17T21:39:02.832Z,50.45
2022-12-17T21:41:39.359Z,49.25
2022-12-17T21:44:13.557Z,46.70
2022-12-17T21:46:43.387Z,47.65
2022-12-17T21:49:14.274Z,50.93
2022-12-17T21:51:44.263Z,56.53
2022-12-17T21:54:17.311Z,56.53
2022-12-17T21:56:47.357Z,47.33
2022-12-17T21:59:15.468Z,46.13
2022-12-17T22:01:43.276Z,47.47
2022-12-17T22:04:11.261Z,49.67
2022-12-17T22:06:41.348Z,53.95
2022-12-17T22:09:33.114Z,48.38
2022-12-17T22:12:16.038Z,43.97
2022-12-17T22:14:43.868Z,48.58
2022-12-17T22:17:11.745Z,39.97
2022-12-17T22:19:39.481Z,41.95
2022-12-17T22:22:06.960Z,48.60
2022-12-17T22:24:36.650Z,48.03
2022-12-17T22:27:09.404Z,37.25
2022-12-17T22:29:55.376Z,43.58
2022-12-17T22:32:40.665Z,42.92
2022-12-17T22:36:22.052Z,40.42
2022-12-17T22:40:03.268Z,34.23
2022-12-17T22:44:29.801Z,43.83
2022-12-17T22:44:46.141Z,35.67
2022-12-17T22:46:22.083Z,33.35
2022-12-17T22:48:49.707Z,38.60
2022-12-17T22:51:21.985Z,30.67
2022-12-17T22:53:58.401Z,35.85
2022-12-17T22:57:09.403Z,32.60
2022-12-17T22:59:16.713Z,39.28
2022-12-17T23:01:44.774Z,29.40
2022-12-17T23:04:13.941Z,34.88
2022-12-17T23:06:41.921Z,34.38
2022-12-17T23:09:10.439Z,30.27
2022-12-17T23:11:39.503Z,30.90
2022-12-17T23:14:08.933Z,41.60
2022-12-17T23:16:38.945Z,32.17
2022-12-17T23:19:07.038Z,34.97
2022-12-17T23:21:35.308Z,35.85
2022-12-17T23:24:03.195Z,30.52
2022-12-17T23:26:33.028Z,33.63
2022-12-17T23:29:03.840Z,35.43
2022-12-17T23:31:34.780Z,32.58
2022-12-17T23:34:02.379Z,37.65
2022-12-17T23:36:31.087Z,30.83
2022-12-17T23:38:59.010Z,37.28
2022-12-17T23:41:28.785Z,33.08
2022-12-17T23:43:57.198Z,28.77
2022-12-17T23:46:28.236Z,34.92
2022-12-17T23:48:56.040Z,32.90
2022-12-17T23:51:24.441Z,33.40
2022-12-17T23:53:53.238Z,32.28
2022-12-17T23:56:23.533Z,30.35
2022-12-17T23:58:53.490Z,32.10
